BAW355W VOBL-VABB
Flight info
| Callsign | BAW355W |
|---|---|
| Flight time | N/A |
| Altitude | 40000 |
| Route | VAGPU7B VAGPU Q8 AGELA MOLGO2A |
| Aircraft | B772/H-SDE2E3FGHIJ5LORVWXY/LB1D1 |
Departure
| Time | 2026-04-28 13:48 |
|---|---|
| Airport | Kempegowda International Airport Bengaluru (VOBL) |
Arrival
| Time | N/A |
|---|---|
| Airport | Chhatrapati Shivaji Maharaj International Airport (VABB) |
| Time | Latitude | Longitude | Altitude | Speed | Heading |
|---|---|---|---|---|---|
| 2026-04-28 13:28 | 13.20191 | 77.70998 | 2974 ft | 0 kts | 180° |
| 2026-04-28 13:39 | 13.20192 | 77.70998 | 2974 ft | 1 kts | 180° |
| 2026-04-28 13:39 | 13.20213 | 77.70998 | 2973 ft | 3 kts | 179° |
| 2026-04-28 13:39 | 13.20238 | 77.70998 | 2972 ft | 3 kts | 178° |
| 2026-04-28 13:39 | 13.20250 | 77.70996 | 2972 ft | 0 kts | 138° |
| 2026-04-28 13:40 | 13.20252 | 77.70993 | 2972 ft | 2 kts | 125° |
| 2026-04-28 13:40 | 13.20260 | 77.70977 | 2972 ft | 1 kts | 99° |
| 2026-04-28 13:40 | 13.20260 | 77.70972 | 2972 ft | 0 kts | 94° |
| 2026-04-28 13:44 | 13.20260 | 77.70974 | 2972 ft | 1 kts | 91° |
| 2026-04-28 13:44 | 13.20261 | 77.71009 | 2971 ft | 9 kts | 89° |
| 2026-04-28 13:44 | 13.20259 | 77.71131 | 2968 ft | 24 kts | 88° |
| 2026-04-28 13:44 | 13.20259 | 77.71317 | 2964 ft | 18 kts | 91° |
| 2026-04-28 13:45 | 13.20258 | 77.71456 | 2961 ft | 20 kts | 88° |
| 2026-04-28 13:45 | 13.20258 | 77.71609 | 2960 ft | 21 kts | 91° |
| 2026-04-28 13:45 | 13.20266 | 77.71764 | 2959 ft | 21 kts | 57° |
| 2026-04-28 13:45 | 13.20414 | 77.71800 | 2952 ft | 23 kts | 44° |
| 2026-04-28 13:46 | 13.20435 | 77.71970 | 2950 ft | 25 kts | 92° |
| 2026-04-28 13:46 | 13.20443 | 77.72083 | 2948 ft | 13 kts | 59° |
| 2026-04-28 13:46 | 13.20509 | 77.72154 | 2944 ft | 15 kts | 70° |
| 2026-04-28 13:46 | 13.20547 | 77.72194 | 2942 ft | 7 kts | 7° |
| 2026-04-28 13:47 | 13.20615 | 77.72199 | 2939 ft | 12 kts | 1° |
| 2026-04-28 13:47 | 13.20680 | 77.72177 | 2937 ft | 8 kts | 288° |
| 2026-04-28 13:47 | 13.20685 | 77.72082 | 2938 ft | 32 kts | 270° |
| 2026-04-28 13:47 | 13.20691 | 77.71528 | 2935 ft | 121 kts | 270° |
| 2026-04-28 13:48 | 13.20721 | 77.70469 | 3273 ft | 156 kts | 273° |
| 2026-04-28 13:48 | 13.20746 | 77.69406 | 4010 ft | 161 kts | 274° |
| 2026-04-28 13:48 | 13.21028 | 77.68255 | 4565 ft | 179 kts | 295° |
| 2026-04-28 13:48 | 13.21750 | 77.67154 | 5092 ft | 197 kts | 306° |
| 2026-04-28 13:49 | 13.22529 | 77.65924 | 5646 ft | 217 kts | 299° |
| 2026-04-28 13:49 | 13.23298 | 77.64500 | 6270 ft | 237 kts | 301° |
| 2026-04-28 13:49 | 13.24132 | 77.63007 | 7012 ft | 251 kts | 302° |
| 2026-04-28 13:49 | 13.25019 | 77.61433 | 7723 ft | 266 kts | 302° |
| 2026-04-28 13:50 | 13.25979 | 77.59730 | 8389 ft | 282 kts | 302° |
| 2026-04-28 13:50 | 13.26981 | 77.57950 | 9072 ft | 297 kts | 302° |
| 2026-04-28 13:50 | 13.28194 | 77.56242 | 10001 ft | 298 kts | 316° |
| 2026-04-28 13:50 | 13.29775 | 77.54875 | 10821 ft | 306 kts | 328° |
| 2026-04-28 13:51 | 13.31692 | 77.53804 | 11409 ft | 323 kts | 340° |
| 2026-04-28 13:51 | 13.33919 | 77.53153 | 12039 ft | 338 kts | 353° |
| 2026-04-28 13:51 | 13.36310 | 77.53037 | 12668 ft | 352 kts | 6° |
| 2026-04-28 13:51 | 13.38737 | 77.53520 | 13314 ft | 365 kts | 20° |
| 2026-04-28 13:52 | 13.41090 | 77.54655 | 13981 ft | 377 kts | 34° |
| 2026-04-28 13:52 | 13.43169 | 77.56347 | 14721 ft | 387 kts | 43° |
| 2026-04-28 13:52 | 13.45223 | 77.58171 | 15543 ft | 395 kts | 40° |
| 2026-04-28 13:52 | 13.47219 | 77.60093 | 16451 ft | 399 kts | 49° |
| 2026-04-28 13:53 | 13.48866 | 77.62369 | 17331 ft | 404 kts | 59° |
| 2026-04-28 13:53 | 13.50127 | 77.64999 | 18116 ft | 412 kts | 69° |
| 2026-04-28 13:53 | 13.51024 | 77.67786 | 18911 ft | 419 kts | 75° |
| 2026-04-28 13:53 | 13.51730 | 77.70701 | 19706 ft | 426 kts | 78° |
| 2026-04-28 13:54 | 13.52290 | 77.73689 | 20489 ft | 432 kts | 81° |
| 2026-04-28 13:54 | 13.52741 | 77.76780 | 21280 ft | 438 kts | 83° |
| 2026-04-28 13:54 | 13.53115 | 77.79888 | 22035 ft | 444 kts | 84° |
| 2026-04-28 13:54 | 13.53446 | 77.83055 | 22770 ft | 451 kts | 85° |
| 2026-04-28 13:55 | 13.53746 | 77.86269 | 23471 ft | 459 kts | 85° |
| 2026-04-28 13:55 | 13.54030 | 77.89568 | 24140 ft | 466 kts | 85° |
| 2026-04-28 13:55 | 13.54296 | 77.92879 | 24821 ft | 472 kts | 85° |
| 2026-04-28 13:55 | 13.54556 | 77.96246 | 25532 ft | 477 kts | 85° |
| 2026-04-28 13:56 | 13.54810 | 77.99666 | 26114 ft | 485 kts | 85° |
| 2026-04-28 13:56 | 13.55062 | 78.03123 | 26657 ft | 492 kts | 85° |
| 2026-04-28 13:56 | 13.55312 | 78.06637 | 27276 ft | 497 kts | 85° |
| 2026-04-28 13:56 | 13.55562 | 78.10191 | 27855 ft | 503 kts | 85° |
| 2026-04-28 13:57 | 13.55774 | 78.13802 | 28408 ft | 509 kts | 86° |
| 2026-04-28 13:57 | 13.55953 | 78.17431 | 28941 ft | 515 kts | 86° |
| 2026-04-28 13:57 | 13.56134 | 78.21128 | 29586 ft | 518 kts | 86° |
| 2026-04-28 13:57 | 13.56327 | 78.24808 | 30437 ft | 516 kts | 84° |
| 2026-04-28 13:58 | 13.56852 | 78.28392 | 31220 ft | 512 kts | 75° |
| 2026-04-28 13:58 | 13.57871 | 78.31894 | 31920 ft | 510 kts | 67° |
| 2026-04-28 13:58 | 13.59338 | 78.35152 | 32609 ft | 507 kts | 58° |
| 2026-04-28 13:58 | 13.61262 | 78.38192 | 33466 ft | 502 kts | 50° |
| 2026-04-28 13:59 | 13.63543 | 78.40842 | 34409 ft | 494 kts | 41° |
| 2026-04-28 13:59 | 13.66150 | 78.43108 | 35268 ft | 488 kts | 32° |
| 2026-04-28 13:59 | 13.69009 | 78.44933 | 35999 ft | 483 kts | 24° |
| 2026-04-28 13:59 | 13.72129 | 78.46311 | 36669 ft | 478 kts | 15° |
| 2026-04-28 14:00 | 13.75332 | 78.47160 | 37294 ft | 474 kts | 6° |
| 2026-04-28 14:00 | 13.78606 | 78.47502 | 37908 ft | 468 kts | 358° |
| 2026-04-28 14:00 | 13.81846 | 78.47354 | 38448 ft | 464 kts | 349° |
| 2026-04-28 14:00 | 13.85004 | 78.46724 | 39004 ft | 460 kts | 341° |
| 2026-04-28 14:01 | 13.88021 | 78.45630 | 39538 ft | 455 kts | 333° |
| 2026-04-28 14:01 | 13.90823 | 78.44133 | 39886 ft | 453 kts | 326° |
| 2026-04-28 14:01 | 13.96035 | 78.40570 | 39871 ft | 445 kts | 320° |
| 2026-04-28 14:02 | 14.00779 | 78.36530 | 39887 ft | 441 kts | 316° |
| 2026-04-28 14:02 | 14.05282 | 78.32192 | 39890 ft | 441 kts | 313° |
| 2026-04-28 14:03 | 14.09529 | 78.27701 | 39894 ft | 439 kts | 310° |
| 2026-04-28 14:03 | 14.13625 | 78.23001 | 39889 ft | 441 kts | 310° |
| 2026-04-28 14:04 | 14.17711 | 78.18304 | 39873 ft | 439 kts | 310° |
| 2026-04-28 14:04 | 14.21806 | 78.13594 | 39859 ft | 440 kts | 310° |
| 2026-04-28 14:05 | 14.25899 | 78.08884 | 39848 ft | 439 kts | 310° |
| 2026-04-28 14:05 | 14.29954 | 78.04215 | 39847 ft | 439 kts | 310° |
| 2026-04-28 14:06 | 14.34041 | 77.99505 | 39858 ft | 439 kts | 310° |
| 2026-04-28 14:06 | 14.38100 | 77.94824 | 39855 ft | 438 kts | 310° |
| 2026-04-28 14:07 | 14.42149 | 77.90153 | 39847 ft | 440 kts | 310° |
| 2026-04-28 14:07 | 14.46222 | 77.85451 | 39837 ft | 438 kts | 310° |
| 2026-04-28 14:08 | 14.50300 | 77.80740 | 39825 ft | 439 kts | 310° |
| 2026-04-28 14:08 | 14.54362 | 77.76044 | 39825 ft | 439 kts | 310° |
| 2026-04-28 14:09 | 14.58417 | 77.71353 | 39817 ft | 440 kts | 310° |
| 2026-04-28 14:09 | 14.62479 | 77.66651 | 39829 ft | 440 kts | 310° |
| 2026-04-28 14:10 | 14.66538 | 77.61950 | 39838 ft | 439 kts | 310° |
| 2026-04-28 14:10 | 14.70630 | 77.57206 | 39832 ft | 441 kts | 310° |
| 2026-04-28 14:11 | 14.74698 | 77.52489 | 39834 ft | 439 kts | 310° |
| 2026-04-28 14:11 | 14.78773 | 77.47759 | 39826 ft | 439 kts | 310° |
| 2026-04-28 14:12 | 14.82835 | 77.43042 | 39826 ft | 439 kts | 310° |
| 2026-04-28 14:12 | 14.86900 | 77.38317 | 39828 ft | 440 kts | 310° |
| 2026-04-28 14:13 | 14.90965 | 77.33591 | 39842 ft | 440 kts | 310° |
| 2026-04-28 14:13 | 14.94157 | 77.29877 | 39843 ft | 440 kts | 310° |
| 2026-04-28 14:14 | 14.96997 | 77.26571 | 39850 ft | 440 kts | 310° |
| 2026-04-28 14:14 | 15.01055 | 77.21844 | 39854 ft | 441 kts | 310° |
| 2026-04-28 14:15 | 15.05124 | 77.17101 | 39848 ft | 438 kts | 310° |
| 2026-04-28 14:15 | 15.09195 | 77.12353 | 39848 ft | 438 kts | 310° |
| 2026-04-28 14:16 | 15.13241 | 77.07630 | 39848 ft | 437 kts | 310° |
| 2026-04-28 14:16 | 15.17248 | 77.02949 | 39845 ft | 437 kts | 310° |
| 2026-04-28 14:17 | 15.21286 | 76.98230 | 39842 ft | 436 kts | 310° |
| 2026-04-28 14:17 | 15.25294 | 76.93542 | 39847 ft | 435 kts | 310° |
| 2026-04-28 14:18 | 15.29323 | 76.88826 | 39851 ft | 435 kts | 310° |
| 2026-04-28 14:18 | 15.33302 | 76.84165 | 39856 ft | 433 kts | 310° |
| 2026-04-28 14:19 | 15.37277 | 76.79507 | 39848 ft | 432 kts | 310° |
| 2026-04-28 14:19 | 15.41282 | 76.74809 | 39846 ft | 433 kts | 309° |
| 2026-04-28 14:20 | 15.45252 | 76.70151 | 39843 ft | 432 kts | 310° |
| 2026-04-28 14:20 | 15.49221 | 76.65489 | 39843 ft | 433 kts | 310° |
| 2026-04-28 14:21 | 15.53198 | 76.60815 | 39849 ft | 431 kts | 310° |
| 2026-04-28 14:21 | 15.57148 | 76.56170 | 39854 ft | 431 kts | 309° |
| 2026-04-28 14:22 | 15.61109 | 76.51508 | 39865 ft | 430 kts | 309° |
| 2026-04-28 14:22 | 15.65056 | 76.46860 | 39874 ft | 429 kts | 309° |
| 2026-04-28 14:23 | 15.69010 | 76.42199 | 39880 ft | 429 kts | 310° |
| 2026-04-28 14:23 | 15.72926 | 76.37582 | 39892 ft | 429 kts | 309° |
| 2026-04-28 14:24 | 15.76886 | 76.32907 | 39904 ft | 428 kts | 309° |
| 2026-04-28 14:24 | 15.80796 | 76.28289 | 39913 ft | 427 kts | 309° |
| 2026-04-28 14:25 | 15.84735 | 76.23633 | 39915 ft | 427 kts | 309° |
| 2026-04-28 14:25 | 15.88635 | 76.19020 | 39918 ft | 427 kts | 309° |
| 2026-04-28 14:26 | 15.92548 | 76.14387 | 39916 ft | 426 kts | 309° |
| 2026-04-28 14:26 | 15.96462 | 76.09751 | 39912 ft | 426 kts | 309° |
| 2026-04-28 14:27 | 16.00367 | 76.05122 | 39909 ft | 428 kts | 309° |
| 2026-04-28 14:27 | 16.04300 | 76.00456 | 39902 ft | 427 kts | 309° |
| 2026-04-28 14:28 | 16.08189 | 75.95840 | 39904 ft | 427 kts | 309° |
| 2026-04-28 14:28 | 16.12136 | 75.91150 | 39894 ft | 428 kts | 309° |
| 2026-04-28 14:29 | 16.16033 | 75.86516 | 39881 ft | 426 kts | 309° |
| 2026-04-28 14:29 | 16.19941 | 75.81866 | 39888 ft | 427 kts | 309° |
| 2026-04-28 14:30 | 16.23872 | 75.77185 | 39891 ft | 428 kts | 309° |
| 2026-04-28 14:30 | 16.27769 | 75.72540 | 39886 ft | 427 kts | 309° |
| 2026-04-28 14:31 | 16.31681 | 75.67875 | 39890 ft | 427 kts | 309° |
| 2026-04-28 14:31 | 16.35579 | 75.63223 | 39893 ft | 428 kts | 309° |
| 2026-04-28 14:32 | 16.39502 | 75.58536 | 39884 ft | 427 kts | 309° |
| 2026-04-28 14:32 | 16.43417 | 75.53856 | 39887 ft | 427 kts | 309° |
| 2026-04-28 14:33 | 16.47315 | 75.49192 | 39885 ft | 426 kts | 309° |
| 2026-04-28 14:33 | 16.51188 | 75.44556 | 39888 ft | 428 kts | 309° |
| 2026-04-28 14:34 | 16.57077 | 75.37498 | 39889 ft | 428 kts | 309° |
| 2026-04-28 14:35 | 16.60965 | 75.32833 | 39904 ft | 428 kts | 309° |
| 2026-04-28 14:35 | 16.64884 | 75.28127 | 39911 ft | 427 kts | 309° |
| 2026-04-28 14:36 | 16.68776 | 75.23451 | 39903 ft | 428 kts | 310° |
| 2026-04-28 14:36 | 16.72682 | 75.18752 | 39900 ft | 429 kts | 310° |
| 2026-04-28 14:37 | 16.76599 | 75.14038 | 39894 ft | 429 kts | 310° |
| 2026-04-28 14:37 | 16.80525 | 75.09308 | 39883 ft | 428 kts | 309° |
| 2026-04-28 14:38 | 16.84427 | 75.04604 | 39885 ft | 429 kts | 309° |
| 2026-04-28 14:38 | 16.88343 | 74.99878 | 39881 ft | 431 kts | 310° |
| 2026-04-28 14:39 | 16.92239 | 74.95171 | 39902 ft | 430 kts | 310° |
| 2026-04-28 14:39 | 16.96159 | 74.90433 | 39910 ft | 431 kts | 310° |
| 2026-04-28 14:40 | 17.00096 | 74.85669 | 39919 ft | 430 kts | 310° |
| 2026-04-28 14:40 | 17.03989 | 74.80955 | 39919 ft | 430 kts | 310° |
| 2026-04-28 14:41 | 17.07917 | 74.76193 | 39927 ft | 432 kts | 310° |
| 2026-04-28 14:41 | 17.11841 | 74.71432 | 39930 ft | 432 kts | 310° |
| 2026-04-28 14:42 | 17.15785 | 74.66641 | 39936 ft | 434 kts | 310° |
| 2026-04-28 14:42 | 17.19745 | 74.61826 | 39930 ft | 432 kts | 310° |
| 2026-04-28 14:43 | 17.23651 | 74.57073 | 39930 ft | 432 kts | 310° |
| 2026-04-28 14:43 | 17.27578 | 74.52288 | 39926 ft | 435 kts | 310° |
| 2026-04-28 14:44 | 17.31514 | 74.47488 | 39919 ft | 431 kts | 310° |
| 2026-04-28 14:44 | 17.35429 | 74.42708 | 39916 ft | 435 kts | 310° |
| 2026-04-28 14:45 | 17.39358 | 74.37906 | 39924 ft | 434 kts | 310° |
| 2026-04-28 14:45 | 17.43270 | 74.33118 | 39948 ft | 433 kts | 310° |
| 2026-04-28 14:46 | 17.47203 | 74.28300 | 39942 ft | 434 kts | 310° |
| 2026-04-28 14:46 | 17.51115 | 74.23499 | 39951 ft | 435 kts | 310° |
| 2026-04-28 14:47 | 17.55113 | 74.18588 | 39953 ft | 449 kts | 310° |
| 2026-04-28 14:47 | 17.59234 | 74.13516 | 39942 ft | 463 kts | 310° |
| 2026-04-28 14:48 | 17.63454 | 74.08314 | 39944 ft | 473 kts | 310° |
| 2026-04-28 14:48 | 17.67747 | 74.03008 | 39949 ft | 477 kts | 310° |
| 2026-04-28 14:49 | 17.72041 | 73.97686 | 39950 ft | 478 kts | 310° |
| 2026-04-28 14:49 | 17.76339 | 73.92320 | 39938 ft | 479 kts | 309° |
| 2026-04-28 14:50 | 17.80445 | 73.86820 | 39947 ft | 479 kts | 308° |
| 2026-04-28 14:50 | 17.84519 | 73.81305 | 39941 ft | 479 kts | 308° |
| 2026-04-28 14:51 | 17.88607 | 73.75773 | 39937 ft | 478 kts | 308° |
| 2026-04-28 14:51 | 17.92708 | 73.70222 | 39927 ft | 479 kts | 308° |
| 2026-04-28 14:52 | 17.96811 | 73.64664 | 39902 ft | 480 kts | 308° |
| 2026-04-28 14:52 | 18.00914 | 73.59103 | 39876 ft | 481 kts | 308° |
| 2026-04-28 14:53 | 18.04996 | 73.53566 | 39854 ft | 482 kts | 308° |
| 2026-04-28 14:53 | 18.09090 | 73.48008 | 39840 ft | 482 kts | 309° |
| 2026-04-28 14:54 | 18.13114 | 73.42554 | 39847 ft | 460 kts | 311° |
| 2026-04-28 14:54 | 18.15322 | 73.40161 | 39854 ft | 446 kts | 320° |
| 2026-04-28 14:54 | 18.17792 | 73.38271 | 39852 ft | 442 kts | 329° |
| 2026-04-28 14:55 | 18.23374 | 73.35439 | 39836 ft | 447 kts | 335° |
| 2026-04-28 14:55 | 18.29117 | 73.32783 | 39838 ft | 447 kts | 335° |
| 2026-04-28 14:56 | 18.34825 | 73.30186 | 39839 ft | 446 kts | 336° |
| 2026-04-28 14:56 | 18.40537 | 73.27605 | 39840 ft | 447 kts | 336° |
| 2026-04-28 14:57 | 18.46239 | 73.25040 | 39829 ft | 446 kts | 336° |
| 2026-04-28 14:57 | 18.51955 | 73.22472 | 39828 ft | 441 kts | 336° |
| 2026-04-28 14:58 | 18.57527 | 73.19970 | 39823 ft | 429 kts | 336° |
| 2026-04-28 14:58 | 18.63028 | 73.17500 | 39821 ft | 432 kts | 336° |
| 2026-04-28 14:59 | 18.68802 | 73.15936 | 39833 ft | 426 kts | 354° |
| 2026-04-28 14:59 | 18.74656 | 73.15711 | 39817 ft | 414 kts | 357° |
| 2026-04-28 15:00 | 18.80416 | 73.15981 | 39833 ft | 421 kts | 10° |
| 2026-04-28 15:00 | 18.85893 | 73.18341 | 39836 ft | 430 kts | 30° |
| 2026-04-28 15:00 | 18.88273 | 73.20295 | 39835 ft | 434 kts | 41° |
| 2026-04-28 15:01 | 18.90271 | 73.22673 | 39839 ft | 439 kts | 51° |
| 2026-04-28 15:01 | 18.91861 | 73.25474 | 39842 ft | 446 kts | 62° |
| 2026-04-28 15:01 | 18.92926 | 73.28532 | 39848 ft | 451 kts | 73° |
| 2026-04-28 15:02 | 18.93594 | 73.35142 | 39839 ft | 457 kts | 85° |
| 2026-04-28 15:02 | 18.94054 | 73.41809 | 39809 ft | 452 kts | 75° |
| 2026-04-28 15:03 | 18.96124 | 73.47961 | 39824 ft | 445 kts | 57° |
| 2026-04-28 15:03 | 18.99803 | 73.53096 | 39821 ft | 436 kts | 40° |
| 2026-04-28 15:04 | 19.04672 | 73.56782 | 39837 ft | 427 kts | 24° |
| 2026-04-28 15:04 | 19.10264 | 73.58781 | 39850 ft | 420 kts | 7° |
| 2026-04-28 15:05 | 19.16037 | 73.59007 | 39873 ft | 415 kts | 354° |
| 2026-04-28 15:05 | 19.21834 | 73.58657 | 39883 ft | 416 kts | 356° |
| 2026-04-28 15:06 | 19.27653 | 73.58474 | 39881 ft | 415 kts | 357° |
| 2026-04-28 15:06 | 19.33448 | 73.58381 | 39877 ft | 416 kts | 357° |
| 2026-04-28 15:07 | 19.39251 | 73.58331 | 39877 ft | 414 kts | 358° |
| 2026-04-28 15:07 | 19.45030 | 73.58304 | 39867 ft | 415 kts | 358° |
| 2026-04-28 15:08 | 19.50823 | 73.58287 | 39877 ft | 415 kts | 358° |
| 2026-04-28 15:08 | 19.56652 | 73.58276 | 39881 ft | 414 kts | 358° |
| 2026-04-28 15:09 | 19.62417 | 73.58266 | 39878 ft | 414 kts | 358° |
| 2026-04-28 15:09 | 19.68161 | 73.58259 | 39883 ft | 413 kts | 358° |
| 2026-04-28 15:10 | 19.73947 | 73.58252 | 39886 ft | 413 kts | 358° |
| 2026-04-28 15:10 | 19.79698 | 73.58245 | 39895 ft | 414 kts | 358° |
| 2026-04-28 15:11 | 19.85505 | 73.58238 | 39906 ft | 414 kts | 358° |
| 2026-04-28 15:11 | 19.91296 | 73.58232 | 39914 ft | 414 kts | 358° |
| 2026-04-28 15:12 | 19.97056 | 73.58226 | 39929 ft | 413 kts | 358° |
| 2026-04-28 15:12 | 20.02770 | 73.58219 | 39926 ft | 411 kts | 358° |
| 2026-04-28 15:13 | 20.08525 | 73.58212 | 39918 ft | 412 kts | 358° |
| 2026-04-28 15:13 | 20.14291 | 73.58206 | 39915 ft | 413 kts | 358° |
| 2026-04-28 15:14 | 20.20037 | 73.58200 | 39912 ft | 411 kts | 358° |
| 2026-04-28 15:14 | 20.25789 | 73.58193 | 39905 ft | 411 kts | 358° |
| 2026-04-28 15:15 | 20.31524 | 73.58186 | 39897 ft | 412 kts | 358° |
| 2026-04-28 15:15 | 20.37250 | 73.58180 | 39889 ft | 409 kts | 358° |
| 2026-04-28 15:16 | 20.42957 | 73.58173 | 39882 ft | 411 kts | 358° |
| 2026-04-28 15:16 | 20.48711 | 73.58167 | 39877 ft | 410 kts | 357° |
| 2026-04-28 15:17 | 20.54421 | 73.58161 | 39868 ft | 409 kts | 357° |
| 2026-04-28 15:17 | 20.60094 | 73.58155 | 39864 ft | 407 kts | 357° |
| 2026-04-28 15:18 | 20.65774 | 73.58148 | 39855 ft | 409 kts | 358° |
| 2026-04-28 15:18 | 20.71481 | 73.58142 | 39841 ft | 409 kts | 358° |
| 2026-04-28 15:19 | 20.77204 | 73.58135 | 39828 ft | 408 kts | 357° |
| 2026-04-28 15:19 | 20.82878 | 73.58129 | 39838 ft | 407 kts | 357° |
| 2026-04-28 15:20 | 20.88556 | 73.58123 | 39830 ft | 407 kts | 357° |
| 2026-04-28 15:20 | 20.94239 | 73.58116 | 39821 ft | 406 kts | 357° |
| 2026-04-28 15:21 | 20.99884 | 73.58110 | 39810 ft | 406 kts | 357° |
| 2026-04-28 15:21 | 21.05599 | 73.58103 | 39800 ft | 407 kts | 357° |
| 2026-04-28 15:22 | 21.11241 | 73.58097 | 39799 ft | 405 kts | 357° |
| 2026-04-28 15:22 | 21.16914 | 73.58091 | 39793 ft | 405 kts | 357° |
| 2026-04-28 15:23 | 21.22569 | 73.58084 | 39783 ft | 405 kts | 357° |
| 2026-04-28 15:23 | 21.28187 | 73.58078 | 39773 ft | 406 kts | 357° |
| 2026-04-28 15:24 | 21.33874 | 73.58072 | 39776 ft | 405 kts | 357° |
| 2026-04-28 15:24 | 21.39520 | 73.58065 | 39783 ft | 405 kts | 357° |
| 2026-04-28 15:25 | 21.45193 | 73.58059 | 39786 ft | 404 kts | 357° |
| 2026-04-28 15:25 | 21.50821 | 73.58052 | 39791 ft | 404 kts | 357° |
| 2026-04-28 15:26 | 21.56448 | 73.58046 | 39795 ft | 404 kts | 357° |
| 2026-04-28 15:26 | 21.62087 | 73.58040 | 39793 ft | 404 kts | 357° |
| 2026-04-28 15:27 | 21.67734 | 73.58033 | 39795 ft | 404 kts | 357° |
| 2026-04-28 15:27 | 21.73326 | 73.58027 | 39790 ft | 403 kts | 357° |
| 2026-04-28 15:28 | 21.78939 | 73.58020 | 39788 ft | 403 kts | 357° |
| 2026-04-28 15:28 | 21.84582 | 73.58014 | 39762 ft | 404 kts | 357° |
| 2026-04-28 15:29 | 21.90172 | 73.58008 | 39754 ft | 402 kts | 357° |
| 2026-04-28 15:29 | 21.95791 | 73.58001 | 39739 ft | 403 kts | 357° |
| 2026-04-28 15:30 | 22.01425 | 73.57994 | 39721 ft | 401 kts | 357° |
| 2026-04-28 15:30 | 22.07020 | 73.57988 | 39732 ft | 402 kts | 357° |
| 2026-04-28 15:31 | 22.12602 | 73.57981 | 39739 ft | 402 kts | 357° |
| 2026-04-28 15:31 | 22.18201 | 73.57975 | 39746 ft | 402 kts | 357° |
| 2026-04-28 15:32 | 22.23829 | 73.57968 | 39744 ft | 403 kts | 357° |
| 2026-04-28 15:32 | 22.29446 | 73.57962 | 39757 ft | 402 kts | 356° |
| 2026-04-28 15:33 | 22.35038 | 73.57956 | 39772 ft | 401 kts | 357° |
| 2026-04-28 15:33 | 22.40616 | 73.57949 | 39781 ft | 401 kts | 357° |
| 2026-04-28 15:34 | 22.46217 | 73.57943 | 39803 ft | 401 kts | 357° |
| 2026-04-28 15:34 | 22.51818 | 73.57936 | 39811 ft | 401 kts | 357° |
| 2026-04-28 15:35 | 22.57409 | 73.57930 | 39798 ft | 402 kts | 356° |
| 2026-04-28 15:35 | 22.65805 | 73.57920 | 39766 ft | 401 kts | 357° |
| 2026-04-28 15:36 | 22.71410 | 73.57914 | 39753 ft | 401 kts | 357° |
| 2026-04-28 15:36 | 22.76987 | 73.57908 | 39740 ft | 400 kts | 356° |
| 2026-04-28 15:37 | 22.82535 | 73.57901 | 39742 ft | 400 kts | 356° |
| 2026-04-28 15:37 | 22.88152 | 73.57894 | 39730 ft | 402 kts | 356° |
| 2026-04-28 15:38 | 22.93722 | 73.57888 | 39723 ft | 401 kts | 356° |
| 2026-04-28 15:38 | 22.99306 | 73.57882 | 39719 ft | 401 kts | 356° |
| 2026-04-28 15:39 | 23.04897 | 73.57875 | 39715 ft | 400 kts | 356° |
| 2026-04-28 15:39 | 23.10461 | 73.57869 | 39720 ft | 399 kts | 356° |
| 2026-04-28 15:40 | 23.16053 | 73.57861 | 39725 ft | 403 kts | 356° |
| 2026-04-28 15:40 | 23.21686 | 73.57856 | 39725 ft | 400 kts | 356° |
| 2026-04-28 15:41 | 23.27286 | 73.57849 | 39722 ft | 401 kts | 356° |
| 2026-04-28 15:41 | 23.32844 | 73.57843 | 39727 ft | 399 kts | 356° |
| 2026-04-28 15:42 | 23.38394 | 73.57836 | 39731 ft | 401 kts | 356° |
| 2026-04-28 15:42 | 23.44009 | 73.57829 | 39734 ft | 401 kts | 356° |
| 2026-04-28 15:43 | 23.49585 | 73.57823 | 39728 ft | 402 kts | 356° |
| 2026-04-28 15:43 | 23.55180 | 73.57817 | 39735 ft | 400 kts | 356° |
| 2026-04-28 15:44 | 23.60754 | 73.57810 | 39744 ft | 400 kts | 356° |
| 2026-04-28 15:44 | 23.66333 | 73.57803 | 39752 ft | 402 kts | 356° |
| 2026-04-28 15:45 | 23.71938 | 73.57797 | 39765 ft | 401 kts | 356° |
| 2026-04-28 15:45 | 23.77546 | 73.57790 | 39770 ft | 402 kts | 356° |
| 2026-04-28 15:46 | 23.83138 | 73.57784 | 39769 ft | 401 kts | 356° |
| 2026-04-28 15:46 | 23.88723 | 73.57777 | 39770 ft | 402 kts | 356° |
| 2026-04-28 15:47 | 23.94312 | 73.57770 | 39770 ft | 401 kts | 356° |
| 2026-04-28 15:47 | 23.99901 | 73.57764 | 39771 ft | 402 kts | 356° |
| 2026-04-28 15:48 | 24.05511 | 73.57758 | 39781 ft | 403 kts | 356° |
| 2026-04-28 15:48 | 24.11100 | 73.57752 | 39801 ft | 401 kts | 356° |
| 2026-04-28 15:49 | 24.16701 | 73.57745 | 39816 ft | 401 kts | 356° |
| 2026-04-28 15:49 | 24.22299 | 73.57738 | 39828 ft | 400 kts | 356° |
| 2026-04-28 15:50 | 24.27856 | 73.57732 | 39838 ft | 401 kts | 356° |
| 2026-04-28 15:50 | 24.33488 | 73.57725 | 39837 ft | 402 kts | 356° |
| 2026-04-28 15:51 | 24.39106 | 73.57718 | 39832 ft | 400 kts | 356° |
| 2026-04-28 15:51 | 24.44676 | 73.57712 | 39830 ft | 401 kts | 356° |
| 2026-04-28 15:52 | 24.50276 | 73.57705 | 39827 ft | 399 kts | 356° |
| 2026-04-28 15:52 | 24.55805 | 73.57699 | 39823 ft | 399 kts | 356° |
| 2026-04-28 15:53 | 24.61400 | 73.57691 | 39822 ft | 401 kts | 356° |
| 2026-04-28 15:53 | 24.66944 | 73.57685 | 39839 ft | 398 kts | 355° |
| 2026-04-28 15:54 | 24.72503 | 73.57678 | 39854 ft | 398 kts | 356° |
| 2026-04-28 15:54 | 24.78042 | 73.57672 | 39861 ft | 399 kts | 356° |
| 2026-04-28 15:55 | 24.83643 | 73.57665 | 39859 ft | 400 kts | 356° |
| 2026-04-28 15:55 | 24.89189 | 73.57658 | 39863 ft | 398 kts | 356° |
| 2026-04-28 15:56 | 24.94739 | 73.57652 | 39866 ft | 400 kts | 356° |
| 2026-04-28 15:56 | 25.00298 | 73.57645 | 39865 ft | 399 kts | 356° |
| 2026-04-28 15:57 | 25.05856 | 73.57639 | 39853 ft | 397 kts | 355° |
| 2026-04-28 15:57 | 25.11405 | 73.57632 | 39844 ft | 398 kts | 355° |
| 2026-04-28 15:58 | 25.16960 | 73.57626 | 39820 ft | 398 kts | 355° |
| 2026-04-28 15:58 | 25.22499 | 73.57619 | 39805 ft | 399 kts | 355° |
| 2026-04-28 15:59 | 25.28061 | 73.57612 | 39782 ft | 399 kts | 355° |
| 2026-04-28 15:59 | 25.33598 | 73.57606 | 39774 ft | 398 kts | 355° |
| 2026-04-28 16:00 | 25.39183 | 73.57599 | 39762 ft | 399 kts | 355° |
| 2026-04-28 16:00 | 25.44713 | 73.57592 | 39756 ft | 398 kts | 355° |
| 2026-04-28 16:01 | 25.50267 | 73.57585 | 39740 ft | 399 kts | 355° |
| 2026-04-28 16:01 | 25.55832 | 73.57579 | 39731 ft | 399 kts | 355° |
| 2026-04-28 16:02 | 25.61362 | 73.57572 | 39728 ft | 399 kts | 355° |
| 2026-04-28 16:02 | 25.66922 | 73.57565 | 39721 ft | 398 kts | 355° |
| 2026-04-28 16:03 | 25.72492 | 73.57558 | 39717 ft | 401 kts | 355° |
| 2026-04-28 16:03 | 25.78083 | 73.57552 | 39713 ft | 400 kts | 355° |
| 2026-04-28 16:04 | 25.83624 | 73.57546 | 39709 ft | 399 kts | 355° |
| 2026-04-28 16:04 | 25.89177 | 73.57539 | 39701 ft | 399 kts | 355° |
| 2026-04-28 16:05 | 25.94761 | 73.57532 | 39689 ft | 399 kts | 355° |
| 2026-04-28 16:05 | 26.00342 | 73.57525 | 39691 ft | 399 kts | 355° |
| 2026-04-28 16:06 | 26.05901 | 73.57518 | 39685 ft | 400 kts | 355° |
| 2026-04-28 16:06 | 26.11472 | 73.57511 | 39693 ft | 399 kts | 355° |
| 2026-04-28 16:07 | 26.17050 | 73.57504 | 39692 ft | 401 kts | 355° |
| 2026-04-28 16:08 | 26.25453 | 73.57494 | 39697 ft | 400 kts | 355° |
| 2026-04-28 16:08 | 26.31012 | 73.57488 | 39694 ft | 399 kts | 355° |
| 2026-04-28 16:09 | 26.39441 | 73.57477 | 39698 ft | 401 kts | 355° |
| 2026-04-28 16:10 | 26.47753 | 73.57467 | 39697 ft | 399 kts | 355° |
| 2026-04-28 16:10 | 26.56178 | 73.57456 | 39698 ft | 401 kts | 355° |
| 2026-04-28 16:11 | 26.67362 | 73.57443 | 39687 ft | 403 kts | 355° |
| 2026-04-28 16:12 | 26.75798 | 73.57433 | 39695 ft | 401 kts | 355° |
| 2026-04-28 16:13 | 26.84149 | 73.57423 | 39697 ft | 400 kts | 355° |
| 2026-04-28 16:14 | 26.95319 | 73.57409 | 39687 ft | 399 kts | 354° |
| 2026-04-28 16:15 | 27.06479 | 73.57395 | 39685 ft | 400 kts | 355° |
| 2026-04-28 16:15 | 27.12079 | 73.57388 | 39693 ft | 402 kts | 354° |
| 2026-04-28 16:16 | 27.20495 | 73.57378 | 39689 ft | 402 kts | 355° |
| 2026-04-28 16:17 | 27.28878 | 73.57367 | 39692 ft | 402 kts | 355° |
| 2026-04-28 16:17 | 27.34513 | 73.57360 | 39697 ft | 403 kts | 355° |
| 2026-04-28 16:18 | 27.40104 | 73.57353 | 39694 ft | 402 kts | 354° |
| 2026-04-28 16:18 | 27.45687 | 73.57339 | 39693 ft | 395 kts | 355° |
| 2026-04-28 16:19 | 27.51123 | 73.57321 | 39688 ft | 386 kts | 355° |
| 2026-04-28 16:19 | 27.56422 | 73.57310 | 39685 ft | 377 kts | 355° |
| 2026-04-28 16:20 | 27.61524 | 73.57342 | 39629 ft | 357 kts | 356° |
| 2026-04-28 16:20 | 27.64030 | 73.57733 | 39051 ft | 378 kts | 8° |
| 2026-04-28 16:20 | 27.66555 | 73.59003 | 37773 ft | 423 kts | 28° |
| 2026-04-28 16:21 | 27.68666 | 73.61571 | 36345 ft | 484 kts | 55° |
| 2026-04-28 16:21 | 27.69753 | 73.65346 | 33986 ft | 557 kts | 78° |
| 2026-04-28 16:21 | 27.70044 | 73.69399 | 27991 ft | 593 kts | 86° |
| 2026-04-28 16:21 | 27.69865 | 73.72913 | 17838 ft | 611 kts | 100° |
| 2026-04-28 16:22 | 27.68616 | 73.76038 | 7573 ft | 615 kts | 133° |
| 2026-04-28 16:22 | 27.65199 | 73.78085 | 4358 ft | 570 kts | 178° |
| 2026-04-28 16:22 | 27.63734 | 73.76244 | 9755 ft | 372 kts | 301° |
| 2026-04-28 16:22 | 27.65750 | 73.75628 | 6576 ft | 455 kts | 51° |
| 2026-04-28 16:23 | 27.64403 | 73.78192 | 2838 ft | 500 kts | 171° |
| 2026-04-28 16:23 | 27.62902 | 73.76276 | 5944 ft | 371 kts | 292° |
| 2026-04-28 16:23 | 27.64922 | 73.75793 | 2475 ft | 451 kts | 55° |
| 2026-04-28 16:23 | 27.65161 | 73.76949 | 1020 ft | 0 kts | 119° |
| 2026-04-28 16:24 | 27.65160 | 73.76949 | 1020 ft | 0 kts | 119° |
| 2026-04-28 16:24 | 27.65160 | 73.76950 | 1020 ft | 0 kts | 119° |
| 2026-04-28 16:26 | 27.65160 | 73.76951 | 1020 ft | 0 kts | 119° |
| 2026-04-28 16:29 | 27.65160 | 73.76952 | 1020 ft | 0 kts | 119° |
| 2026-04-28 16:30 | 27.65159 | 73.76952 | 1020 ft | 0 kts | 119° |
| 2026-04-28 16:33 | 27.65159 | 73.76953 | 1021 ft | 0 kts | 119° |
| 2026-04-28 16:35 | 27.65159 | 73.76954 | 1020 ft | 0 kts | 119° |
| 2026-04-28 16:38 | 27.65159 | 73.76955 | 1021 ft | 0 kts | 119° |
| 2026-04-28 16:38 | 27.65158 | 73.76955 | 1021 ft | 0 kts | 119° |
| 2026-04-28 16:42 | 27.65158 | 73.76956 | 1021 ft | 0 kts | 119° |
| 2026-04-28 16:44 | 27.65158 | 73.76957 | 1021 ft | 0 kts | 119° |
| 2026-04-28 16:45 | 27.65157 | 73.76957 | 1021 ft | 0 kts | 120° |
| 2026-04-28 16:46 | 27.65157 | 73.76958 | 1021 ft | 0 kts | 120° |
| 2026-04-28 16:48 | 27.65157 | 73.76959 | 1021 ft | 0 kts | 120° |
| 2026-04-28 16:53 | 27.65157 | 73.76960 | 1021 ft | 0 kts | 120° |
| 2026-04-28 16:56 | 27.65157 | 73.76961 | 1021 ft | 0 kts | 121° |
| 2026-04-28 16:58 | 27.65157 | 73.76962 | 1021 ft | 0 kts | 121° |
| 2026-04-28 16:59 | 27.65156 | 73.76962 | 1021 ft | 0 kts | 121° |
| 2026-04-28 17:04 | 27.65156 | 73.76963 | 1021 ft | 0 kts | 122° |
| 2026-04-28 17:07 | 27.65156 | 73.76964 | 1021 ft | 0 kts | 123° |
| 2026-04-28 17:09 | 27.65156 | 73.76965 | 1021 ft | 0 kts | 123° |